sensor_id;sensor_type;location;lat;lon;timestamp;pressure;altitude;pressure_sealevel;temperature;humidity
30730;BME280;17476;48.458;7.928;2023-02-03T00:02:01;101523.09;;;6.52;99.48
30730;BME280;17476;48.458;7.928;2023-02-03T00:04:27;101514.94;;;6.44;99.53
30730;BME280;17476;48.458;7.928;2023-02-03T00:06:53;101515.78;;;6.44;99.57
30730;BME280;17476;48.458;7.928;2023-02-03T00:09:19;101511.81;;;6.39;99.53
30730;BME280;17476;48.458;7.928;2023-02-03T00:11:45;101512.41;;;6.42;99.47
30730;BME280;17476;48.458;7.928;2023-02-03T00:14:11;101514.00;;;6.45;99.21
30730;BME280;17476;48.458;7.928;2023-02-03T00:16:37;101516.50;;;6.46;99.34
30730;BME280;17476;48.458;7.928;2023-02-03T00:19:03;101513.47;;;6.40;99.32
30730;BME280;17476;48.458;7.928;2023-02-03T00:21:29;101514.75;;;6.47;99.45
30730;BME280;17476;48.458;7.928;2023-02-03T00:23:54;101508.16;;;6.41;99.20
30730;BME280;17476;48.458;7.928;2023-02-03T00:26:20;101510.03;;;6.39;100.00
30730;BME280;17476;48.458;7.928;2023-02-03T00:28:46;101522.19;;;6.39;99.23
30730;BME280;17476;48.458;7.928;2023-02-03T00:31:18;101515.50;;;6.35;99.31
30730;BME280;17476;48.458;7.928;2023-02-03T00:33:44;101519.78;;;6.36;99.26
30730;BME280;17476;48.458;7.928;2023-02-03T00:36:11;101524.25;;;6.34;100.00
30730;BME280;17476;48.458;7.928;2023-02-03T00:38:37;101521.66;;;6.34;100.00
30730;BME280;17476;48.458;7.928;2023-02-03T00:41:03;101519.88;;;6.34;99.78
30730;BME280;17476;48.458;7.928;2023-02-03T00:43:29;101533.59;;;6.36;99.78
30730;BME280;17476;48.458;7.928;2023-02-03T00:45:55;101524.13;;;6.35;100.00
30730;BME280;17476;48.458;7.928;2023-02-03T00:48:20;101523.19;;;6.36;100.00
30730;BME280;17476;48.458;7.928;2023-02-03T00:50:47;101517.19;;;6.36;100.00
30730;BME280;17476;48.458;7.928;2023-02-03T00:53:16;101519.97;;;6.33;100.00
30730;BME280;17476;48.458;7.928;2023-02-03T00:55:42;101526.28;;;6.28;100.00
30730;BME280;17476;48.458;7.928;2023-02-03T00:58:08;101518.69;;;6.25;100.00
30730;BME280;17476;48.458;7.928;2023-02-03T01:00:34;101516.28;;;6.22;100.00
30730;BME280;17476;48.458;7.928;2023-02-03T01:03:00;101510.09;;;6.25;100.00
30730;BME280;17476;48.458;7.928;2023-02-03T01:05:26;101503.22;;;6.24;100.00
30730;BME280;17476;48.458;7.928;2023-02-03T01:07:51;101504.13;;;6.23;100.00
30730;BME280;17476;48.458;7.928;2023-02-03T01:10:17;101515.44;;;6.22;100.00
30730;BME280;17476;48.458;7.928;2023-02-03T01:12:43;101510.19;;;6.23;100.00
30730;BME280;17476;48.458;7.928;2023-02-03T01:15:09;101514.81;;;6.18;100.00
30730;BME280;17476;48.458;7.928;2023-02-03T01:17:38;101524.38;;;6.18;100.00
30730;BME280;17476;48.458;7.928;2023-02-03T01:20:04;101528.66;;;6.19;100.00
30730;BME280;17476;48.458;7.928;2023-02-03T01:22:30;101529.94;;;6.26;100.00
30730;BME280;17476;48.458;7.928;2023-02-03T01:24:56;101526.28;;;6.28;100.00
30730;BME280;17476;48.458;7.928;2023-02-03T01:27:22;101520.91;;;6.32;99.85
30730;BME280;17476;48.458;7.928;2023-02-03T01:29:48;101530.66;;;6.28;100.00
30730;BME280;17476;48.458;7.928;2023-02-03T01:32:14;101523.91;;;6.25;99.55
30730;BME280;17476;48.458;7.928;2023-02-03T01:34:39;101523.78;;;6.27;99.96
30730;BME280;17476;48.458;7.928;2023-02-03T01:37:05;101526.28;;;6.28;98.89
30730;BME280;17476;48.458;7.928;2023-02-03T01:39:31;101518.81;;;6.24;99.86
30730;BME280;17476;48.458;7.928;2023-02-03T01:41:57;101506.81;;;6.21;99.73
30730;BME280;17476;48.458;7.928;2023-02-03T01:44:48;101498.09;;;6.22;99.59
30730;BME280;17476;48.458;7.928;2023-02-03T01:47:32;101490.97;;;6.26;99.86
30730;BME280;17476;48.458;7.928;2023-02-03T01:50:18;101486.81;;;6.23;99.17
30730;BME280;17476;48.458;7.928;2023-02-03T01:52:59;101488.25;;;6.27;98.69
30730;BME280;17476;48.458;7.928;2023-02-03T01:55:36;101489.28;;;6.25;99.20
30730;BME280;17476;48.458;7.928;2023-02-03T01:58:22;101498.53;;;6.29;98.19
30730;BME280;17476;48.458;7.928;2023-02-03T02:00:51;101511.47;;;6.31;98.76
30730;BME280;17476;48.458;7.928;2023-02-03T02:03:23;101513.03;;;6.33;97.66
30730;BME280;17476;48.458;7.928;2023-02-03T02:06:11;101511.63;;;6.27;97.92
30730;BME280;17476;48.458;7.928;2023-02-03T02:08:40;101509.03;;;6.27;98.75
30730;BME280;17476;48.458;7.928;2023-02-03T02:11:07;101506.44;;;6.27;98.24
30730;BME280;17476;48.458;7.928;2023-02-03T02:13:34;101503.00;;;6.27;99.07
30730;BME280;17476;48.458;7.928;2023-02-03T02:16:15;101494.28;;;6.28;97.78
30730;BME280;17476;48.458;7.928;2023-02-03T02:22:11;101473.72;;;6.25;98.01
30730;BME280;17476;48.458;7.928;2023-02-03T02:33:46;101449.88;;;6.18;96.90
30730;BME280;17476;48.458;7.928;2023-02-03T02:36:59;101430.03;;;6.17;97.02
30730;BME280;17476;48.458;7.928;2023-02-03T02:39:51;101412.31;;;6.24;95.91
30730;BME280;17476;48.458;7.928;2023-02-03T02:45:28;101392.75;;;6.18;96.46
30730;BME280;17476;48.458;7.928;2023-02-03T02:48:07;101396.72;;;6.24;94.37
30730;BME280;17476;48.458;7.928;2023-02-03T02:50:40;101398.38;;;6.25;95.36
30730;BME280;17476;48.458;7.928;2023-02-03T02:53:09;101405.34;;;6.24;94.34
30730;BME280;17476;48.458;7.928;2023-02-03T02:55:38;101394.63;;;6.29;93.70
30730;BME280;17476;48.458;7.928;2023-02-03T02:58:09;101408.00;;;6.23;94.76
30730;BME280;17476;48.458;7.928;2023-02-03T03:00:37;101396.50;;;6.27;94.08
30730;BME280;17476;48.458;7.928;2023-02-03T03:03:22;101385.59;;;6.35;93.47
30730;BME280;17476;48.458;7.928;2023-02-03T03:05:55;101389.03;;;6.35;92.41
30730;BME280;17476;48.458;7.928;2023-02-03T03:08:41;101376.03;;;6.35;93.13
30730;BME280;17476;48.458;7.928;2023-02-03T03:11:08;101383.00;;;6.35;93.55
30730;BME280;17476;48.458;7.928;2023-02-03T03:13:41;101382.59;;;6.41;93.11
30730;BME280;17476;48.458;7.928;2023-02-03T03:16:09;101382.81;;;6.38;92.86
30730;BME280;17476;48.458;7.928;2023-02-03T03:18:48;101378.47;;;6.38;92.43
30730;BME280;17476;48.458;7.928;2023-02-03T03:21:27;101378.53;;;6.37;92.07
30730;BME280;17476;48.458;7.928;2023-02-03T03:23:58;101392.59;;;6.47;91.83
30730;BME280;17476;48.458;7.928;2023-02-03T03:27:25;101401.84;;;6.38;92.38
30730;BME280;17476;48.458;7.928;2023-02-03T03:29:52;101406.44;;;6.47;91.62
30730;BME280;17476;48.458;7.928;2023-02-03T03:32:19;101419.41;;;6.47;91.37
30730;BME280;17476;48.458;7.928;2023-02-03T03:34:45;101416.09;;;6.45;91.02
30730;BME280;17476;48.458;7.928;2023-02-03T03:37:19;101416.63;;;6.50;91.42
30730;BME280;17476;48.458;7.928;2023-02-03T03:39:56;101403.28;;;6.42;92.14
30730;BME280;17476;48.458;7.928;2023-02-03T03:42:46;101395.41;;;6.44;91.68
30730;BME280;17476;48.458;7.928;2023-02-03T03:45:38;101404.22;;;6.41;91.84
30730;BME280;17476;48.458;7.928;2023-02-03T03:48:20;101405.16;;;6.40;91.63
30730;BME280;17476;48.458;7.928;2023-02-03T03:50:57;101409.25;;;6.44;91.42
30730;BME280;17476;48.458;7.928;2023-02-03T03:53:28;101419.63;;;6.44;91.98
30730;BME280;17476;48.458;7.928;2023-02-03T03:55:55;101440.81;;;6.38;92.80
30730;BME280;17476;48.458;7.928;2023-02-03T03:58:30;101451.50;;;6.34;92.49
30730;BME280;17476;48.458;7.928;2023-02-03T04:01:02;101439.72;;;6.28;93.24
30730;BME280;17476;48.458;7.928;2023-02-03T04:03:42;101452.31;;;6.34;93.12
30730;BME280;17476;48.458;7.928;2023-02-03T04:06:11;101469.06;;;6.30;93.52
30730;BME280;17476;48.458;7.928;2023-02-03T04:08:37;101472.66;;;6.27;93.05
30730;BME280;17476;48.458;7.928;2023-02-03T04:11:04;101468.97;;;6.32;93.27
30730;BME280;17476;48.458;7.928;2023-02-03T04:13:31;101477.13;;;6.25;93.28
30730;BME280;17476;48.458;7.928;2023-02-03T04:15:57;101483.56;;;6.20;93.30
30730;BME280;17476;48.458;7.928;2023-02-03T04:18:22;101482.00;;;6.17;93.60
30730;BME280;17476;48.458;7.928;2023-02-03T04:20:49;101473.06;;;6.21;93.16
30730;BME280;17476;48.458;7.928;2023-02-03T04:23:15;101463.31;;;6.25;93.80
30730;BME280;17476;48.458;7.928;2023-02-03T04:25:41;101470.28;;;6.24;94.70
30730;BME280;17476;48.458;7.928;2023-02-03T04:28:07;101465.16;;;6.23;94.02
30730;BME280;17476;48.458;7.928;2023-02-03T04:30:33;101468.69;;;6.22;94.57
30730;BME280;17476;48.458;7.928;2023-02-03T04:32:59;101480.41;;;6.15;95.41
30730;BME280;17476;48.458;7.928;2023-02-03T04:35:24;101476.44;;;6.09;95.18
30730;BME280;17476;48.458;7.928;2023-02-03T04:37:50;101475.91;;;6.04;96.36
30730;BME280;17476;48.458;7.928;2023-02-03T04:40:16;101484.53;;;6.05;96.30
30730;BME280;17476;48.458;7.928;2023-02-03T04:42:42;101475.06;;;6.04;97.37
30730;BME280;17476;48.458;7.928;2023-02-03T04:45:11;101478.19;;;6.09;97.12
30730;BME280;17476;48.458;7.928;2023-02-03T04:47:38;101478.41;;;6.06;96.53
30730;BME280;17476;48.458;7.928;2023-02-03T04:50:05;101474.53;;;5.98;97.46
30730;BME280;17476;48.458;7.928;2023-02-03T04:52:31;101470.16;;;5.99;97.36
30730;BME280;17476;48.458;7.928;2023-02-03T04:54:57;101457.19;;;5.99;98.37
30730;BME280;17476;48.458;7.928;2023-02-03T04:57:23;101441.41;;;5.88;98.85
30730;BME280;17476;48.458;7.928;2023-02-03T04:59:49;101442.22;;;5.88;98.07
30730;BME280;17476;48.458;7.928;2023-02-03T05:02:14;101445.03;;;5.85;97.92
30730;BME280;17476;48.458;7.928;2023-02-03T05:04:40;101437.34;;;5.84;97.87
30730;BME280;17476;48.458;7.928;2023-02-03T05:07:06;101449.03;;;5.91;97.23
30730;BME280;17476;48.458;7.928;2023-02-03T05:09:32;101445.84;;;5.86;97.54
30730;BME280;17476;48.458;7.928;2023-02-03T05:11:58;101447.28;;;5.91;96.83
30730;BME280;17476;48.458;7.928;2023-02-03T05:14:23;101438.34;;;5.81;97.39
30730;BME280;17476;48.458;7.928;2023-02-03T05:16:49;101447.91;;;5.81;97.70
30730;BME280;17476;48.458;7.928;2023-02-03T05:19:15;101440.88;;;5.83;97.32
30730;BME280;17476;48.458;7.928;2023-02-03T05:21:41;101449.56;;;5.82;97.14
30730;BME280;17476;48.458;7.928;2023-02-03T05:24:07;101444.31;;;5.83;97.65
30730;BME280;17476;48.458;7.928;2023-02-03T05:26:34;101447.41;;;5.88;96.55
30730;BME280;17476;48.458;7.928;2023-02-03T05:29:01;101442.59;;;5.82;96.72
30730;BME280;17476;48.458;7.928;2023-02-03T05:31:26;101446.25;;;5.80;97.36
30730;BME280;17476;48.458;7.928;2023-02-03T05:33:52;101441.50;;;5.86;97.10
30730;BME280;17476;48.458;7.928;2023-02-03T05:36:18;101450.41;;;5.82;96.91
30730;BME280;17476;48.458;7.928;2023-02-03T05:38:44;101455.31;;;5.87;96.27
30730;BME280;17476;48.458;7.928;2023-02-03T05:41:11;101452.47;;;5.77;95.73
30730;BME280;17476;48.458;7.928;2023-02-03T05:43:56;101449.78;;;5.79;96.54
30730;BME280;17476;48.458;7.928;2023-02-03T05:46:22;101455.06;;;5.77;96.30
30730;BME280;17476;48.458;7.928;2023-02-03T05:48:48;101462.91;;;5.75;95.75
30730;BME280;17476;48.458;7.928;2023-02-03T05:51:16;101458.28;;;5.81;96.38
30730;BME280;17476;48.458;7.928;2023-02-03T05:53:42;101446.69;;;5.86;95.52
30730;BME280;17476;48.458;7.928;2023-02-03T05:56:11;101450.31;;;5.84;96.41
30730;BME280;17476;48.458;7.928;2023-02-03T05:58:37;101462.66;;;5.80;96.19
30730;BME280;17476;48.458;7.928;2023-02-03T06:01:03;101469.50;;;5.81;95.54
30730;BME280;17476;48.458;7.928;2023-02-03T06:03:28;101487.41;;;5.86;95.71
30730;BME280;17476;48.458;7.928;2023-02-03T06:05:54;101490.09;;;5.84;96.08
30730;BME280;17476;48.458;7.928;2023-02-03T06:08:20;101481.16;;;5.88;95.46
30730;BME280;17476;48.458;7.928;2023-02-03T06:10:46;101478.78;;;5.85;96.25
30730;BME280;17476;48.458;7.928;2023-02-03T06:13:14;101469.31;;;5.84;96.36
30730;BME280;17476;48.458;7.928;2023-02-03T06:15:41;101476.91;;;5.87;95.68
30730;BME280;17476;48.458;7.928;2023-02-03T06:18:08;101483.03;;;5.86;96.49
30730;BME280;17476;48.458;7.928;2023-02-03T06:20:34;101476.34;;;5.82;97.46
30730;BME280;17476;48.458;7.928;2023-02-03T06:23:00;101486.56;;;5.85;97.26
30730;BME280;17476;48.458;7.928;2023-02-03T06:25:26;101478.88;;;5.84;98.10
30730;BME280;17476;48.458;7.928;2023-02-03T06:27:52;101479.97;;;5.80;98.80
30730;BME280;17476;48.458;7.928;2023-02-03T06:30:18;101493.53;;;5.85;98.35
30730;BME280;17476;48.458;7.928;2023-02-03T06:32:45;101481.38;;;5.85;97.52
30730;BME280;17476;48.458;7.928;2023-02-03T06:35:12;101479.72;;;5.84;98.64
30730;BME280;17476;48.458;7.928;2023-02-03T06:37:38;101480.81;;;5.80;98.33
30730;BME280;17476;48.458;7.928;2023-02-03T06:40:05;101476.44;;;5.81;98.33
30730;BME280;17476;48.458;7.928;2023-02-03T06:42:31;101467.94;;;5.79;98.88
30730;BME280;17476;48.458;7.928;2023-02-03T06:44:57;101469.31;;;5.84;98.02
30730;BME280;17476;48.458;7.928;2023-02-03T06:47:23;101458.38;;;5.79;98.17
30730;BME280;17476;48.458;7.928;2023-02-03T06:49:49;101445.41;;;5.79;98.73
30730;BME280;17476;48.458;7.928;2023-02-03T06:52:16;101428.72;;;5.83;98.05
30730;BME280;17476;48.458;7.928;2023-02-03T06:54:42;101423.44;;;5.85;99.00
30730;BME280;17476;48.458;7.928;2023-02-03T06:57:08;101426.97;;;5.84;98.54
30730;BME280;17476;48.458;7.928;2023-02-03T06:59:33;101426.56;;;5.90;98.33
30730;BME280;17476;48.458;7.928;2023-02-03T07:01:59;101434.66;;;5.85;98.92
30730;BME280;17476;48.458;7.928;2023-02-03T07:04:25;101434.75;;;5.84;97.96
30730;BME280;17476;48.458;7.928;2023-02-03T07:06:55;101425.91;;;5.86;99.73
30730;BME280;17476;48.458;7.928;2023-02-03T07:09:22;101428.34;;;5.89;98.83
30730;BME280;17476;48.458;7.928;2023-02-03T07:11:48;101432.88;;;5.86;99.16
30730;BME280;17476;48.458;7.928;2023-02-03T07:14:14;101446.50;;;5.89;98.87
30730;BME280;17476;48.458;7.928;2023-02-03T07:16:40;101449.88;;;5.91;98.92
30730;BME280;17476;48.458;7.928;2023-02-03T07:19:06;101451.31;;;5.95;98.17
30730;BME280;17476;48.458;7.928;2023-02-03T07:21:32;101451.16;;;5.98;98.43
30730;BME280;17476;48.458;7.928;2023-02-03T07:23:58;101458.44;;;6.06;97.91
30730;BME280;17476;48.458;7.928;2023-02-03T07:26:23;101470.88;;;6.01;98.80
30730;BME280;17476;48.458;7.928;2023-02-03T07:28:51;101468.28;;;6.01;98.12
30730;BME280;17476;48.458;7.928;2023-02-03T07:31:17;101442.22;;;6.02;98.14
30730;BME280;17476;48.458;7.928;2023-02-03T07:33:43;101441.94;;;6.07;98.39
30730;BME280;17476;48.458;7.928;2023-02-03T07:36:10;101441.84;;;6.09;98.15
30730;BME280;17476;48.458;7.928;2023-02-03T07:38:36;101444.81;;;6.17;96.58
30730;BME280;17476;48.458;7.928;2023-02-03T07:41:04;101451.94;;;6.13;97.27
30730;BME280;17476;48.458;7.928;2023-02-03T07:43:30;101440.72;;;6.13;98.07
30730;BME280;17476;48.458;7.928;2023-02-03T07:45:56;101431.59;;;6.20;98.25
30730;BME280;17476;48.458;7.928;2023-02-03T07:48:22;101440.66;;;6.27;96.26
30730;BME280;17476;48.458;7.928;2023-02-03T07:50:48;101440.47;;;6.30;96.27
30730;BME280;17476;48.458;7.928;2023-02-03T07:53:16;101454.59;;;6.26;96.98
30730;BME280;17476;48.458;7.928;2023-02-03T07:55:42;101454.09;;;6.34;96.32
30730;BME280;17476;48.458;7.928;2023-02-03T07:58:08;101450.94;;;6.28;97.21
30730;BME280;17476;48.458;7.928;2023-02-03T08:00:34;101448.34;;;6.28;97.14
30730;BME280;17476;48.458;7.928;2023-02-03T08:03:00;101449.00;;;6.32;97.02
30730;BME280;17476;48.458;7.928;2023-02-03T08:05:25;101465.22;;;6.36;96.74
30730;BME280;17476;48.458;7.928;2023-02-03T08:07:51;101469.41;;;6.38;96.31
30730;BME280;17476;48.458;7.928;2023-02-03T08:10:17;101474.19;;;6.44;96.21
30730;BME280;17476;48.458;7.928;2023-02-03T08:12:44;101472.88;;;6.51;97.01
30730;BME280;17476;48.458;7.928;2023-02-03T08:15:11;101475.53;;;6.50;96.50
30730;BME280;17476;48.458;7.928;2023-02-03T08:17:37;101474.44;;;6.54;96.76
30730;BME280;17476;48.458;7.928;2023-02-03T08:20:08;101477.84;;;6.54;96.56
30730;BME280;17476;48.458;7.928;2023-02-03T08:22:34;101488.16;;;6.56;96.09
30730;BME280;17476;48.458;7.928;2023-02-03T08:25:00;101488.25;;;6.54;96.37
30730;BME280;17476;48.458;7.928;2023-02-03T08:27:26;101481.19;;;6.56;96.09
30730;BME280;17476;48.458;7.928;2023-02-03T08:29:51;101480.06;;;6.61;96.17
30730;BME280;17476;48.458;7.928;2023-02-03T08:32:20;101494.72;;;6.62;95.96
30730;BME280;17476;48.458;7.928;2023-02-03T08:34:48;101507.53;;;6.65;96.43
30730;BME280;17476;48.458;7.928;2023-02-03T08:37:17;101520.59;;;6.63;95.90
30730;BME280;17476;48.458;7.928;2023-02-03T08:39:43;101530.16;;;6.63;96.01
30730;BME280;17476;48.458;7.928;2023-02-03T08:42:09;101521.84;;;6.57;96.87
30730;BME280;17476;48.458;7.928;2023-02-03T08:44:35;101513.84;;;6.61;97.49
30730;BME280;17476;48.458;7.928;2023-02-03T08:47:04;101511.78;;;6.66;96.64
30730;BME280;17476;48.458;7.928;2023-02-03T08:49:30;101516.59;;;6.72;97.26
30730;BME280;17476;48.458;7.928;2023-02-03T08:51:57;101519.91;;;6.74;96.49
30730;BME280;17476;48.458;7.928;2023-02-03T08:54:24;101538.41;;;6.69;96.08
30730;BME280;17476;48.458;7.928;2023-02-03T08:56:50;101543.00;;;6.66;97.34
30730;BME280;17476;48.458;7.928;2023-02-03T08:59:16;101541.13;;;6.68;97.87
30730;BME280;17476;48.458;7.928;2023-02-03T09:01:43;101544.03;;;6.76;97.04
30730;BME280;17476;48.458;7.928;2023-02-03T09:04:11;101559.56;;;6.77;98.37
30730;BME280;17476;48.458;7.928;2023-02-03T09:06:38;101558.72;;;6.77;98.54
30730;BME280;17476;48.458;7.928;2023-02-03T09:09:04;101568.09;;;6.79;97.99
30730;BME280;17476;48.458;7.928;2023-02-03T09:11:30;101549.56;;;6.84;98.67
30730;BME280;17476;48.458;7.928;2023-02-03T09:13:56;101548.75;;;6.83;98.86
30730;BME280;17476;48.458;7.928;2023-02-03T09:16:24;101540.53;;;6.90;98.63
30730;BME280;17476;48.458;7.928;2023-02-03T09:18:50;101547.91;;;6.83;99.12
30730;BME280;17476;48.458;7.928;2023-02-03T09:21:16;101546.69;;;6.89;99.12
30730;BME280;17476;48.458;7.928;2023-02-03T09:23:43;101551.28;;;6.85;99.84
30730;BME280;17476;48.458;7.928;2023-02-03T09:26:12;101551.56;;;6.80;99.11
30730;BME280;17476;48.458;7.928;2023-02-03T09:28:39;101548.47;;;6.88;99.35
30730;BME280;17476;48.458;7.928;2023-02-03T09:31:12;101533.97;;;6.84;100.00
30730;BME280;17476;48.458;7.928;2023-02-03T09:33:39;101524.72;;;6.80;100.00
30730;BME280;17476;48.458;7.928;2023-02-03T09:36:07;101520.16;;;6.83;100.00
30730;BME280;17476;48.458;7.928;2023-02-03T09:38:33;101515.47;;;6.89;100.00
30730;BME280;17476;48.458;7.928;2023-02-03T09:44:01;101519.13;;;6.86;100.00
30730;BME280;17476;48.458;7.928;2023-02-03T09:46:34;101517.78;;;6.93;99.61
30730;BME280;17476;48.458;7.928;2023-02-03T09:49:16;101521.31;;;6.92;98.39
30730;BME280;17476;48.458;7.928;2023-02-03T09:52:02;101528.81;;;6.97;97.92
30730;BME280;17476;48.458;7.928;2023-02-03T09:55:08;101529.06;;;7.06;98.10
30730;BME280;17476;48.458;7.928;2023-02-03T09:57:49;101522.19;;;7.05;98.42
30730;BME280;17476;48.458;7.928;2023-02-03T10:00:25;101521.78;;;7.11;97.88
30730;BME280;17476;48.458;7.928;2023-02-03T10:03:11;101521.69;;;7.26;98.01
30730;BME280;17476;48.458;7.928;2023-02-03T10:06:35;101523.25;;;7.41;98.29
30730;BME280;17476;48.458;7.928;2023-02-03T10:17:54;101519.69;;;7.29;98.99
30730;BME280;17476;48.458;7.928;2023-02-03T10:20:38;101523.44;;;7.38;98.99
30730;BME280;17476;48.458;7.928;2023-02-03T10:23:14;101527.22;;;7.47;98.35
30730;BME280;17476;48.458;7.928;2023-02-03T10:25:51;101509.59;;;7.50;98.15
30730;BME280;17476;48.458;7.928;2023-02-03T10:28:29;101507.09;;;7.61;97.25
30730;BME280;17476;48.458;7.928;2023-02-03T10:30:58;101501.13;;;7.72;96.83
30730;BME280;17476;48.458;7.928;2023-02-03T10:33:27;101492.81;;;7.80;97.22
30730;BME280;17476;48.458;7.928;2023-02-03T10:41:48;101504.19;;;8.15;93.14
30730;BME280;17476;48.458;7.928;2023-02-03T10:44:15;101496.38;;;8.15;92.37
30730;BME280;17476;48.458;7.928;2023-02-03T10:46:41;101515.53;;;8.14;92.12
30730;BME280;17476;48.458;7.928;2023-02-03T10:49:12;101515.19;;;8.19;92.72
30730;BME280;17476;48.458;7.928;2023-02-03T10:51:47;101516.25;;;8.16;92.03
30730;BME280;17476;48.458;7.928;2023-02-03T10:54:34;101515.94;;;8.21;91.61
30730;BME280;17476;48.458;7.928;2023-02-03T10:57:09;101506.75;;;8.28;91.31
30730;BME280;17476;48.458;7.928;2023-02-03T10:59:41;101484.75;;;8.19;91.96
30730;BME280;17476;48.458;7.928;2023-02-03T11:02:28;101474.19;;;8.34;91.15
30730;BME280;17476;48.458;7.928;2023-02-03T11:07:43;101484.13;;;8.29;89.73
30730;BME280;17476;48.458;7.928;2023-02-03T11:10:33;101478.84;;;8.17;90.19
30730;BME280;17476;48.458;7.928;2023-02-03T11:13:24;101500.41;;;8.19;90.69
30730;BME280;17476;48.458;7.928;2023-02-03T11:16:04;101481.00;;;8.24;90.35
30730;BME280;17476;48.458;7.928;2023-02-03T11:19:13;101488.69;;;8.25;89.15
30730;BME280;17476;48.458;7.928;2023-02-03T11:21:52;101477.97;;;8.30;89.25
30730;BME280;17476;48.458;7.928;2023-02-03T11:24:27;101474.25;;;8.21;89.58
30730;BME280;17476;48.458;7.928;2023-02-03T11:27:09;101467.75;;;8.27;89.36
30730;BME280;17476;48.458;7.928;2023-02-03T11:29:47;101456.78;;;8.34;88.22
30730;BME280;17476;48.458;7.928;2023-02-03T11:35:22;101452.38;;;8.47;89.46
30730;BME280;17476;48.458;7.928;2023-02-03T11:37:55;101443.25;;;8.53;87.87
30730;BME280;17476;48.458;7.928;2023-02-03T11:40:30;101429.16;;;8.56;87.96
30730;BME280;17476;48.458;7.928;2023-02-03T11:45:46;101433.19;;;8.60;87.45
30730;BME280;17476;48.458;7.928;2023-02-03T11:57:05;101432.09;;;8.51;88.03
30730;BME280;17476;48.458;7.928;2023-02-03T12:08:53;101429.28;;;8.54;88.68
30730;BME280;17476;48.458;7.928;2023-02-03T12:14:39;101429.72;;;8.48;88.72
30730;BME280;17476;48.458;7.928;2023-02-03T12:34:18;101413.44;;;8.68;85.10
30730;BME280;17476;48.458;7.928;2023-02-03T12:37:18;101408.13;;;8.81;85.63
30730;BME280;17476;48.458;7.928;2023-02-03T12:39:57;101412.16;;;8.85;84.83
30730;BME280;17476;48.458;7.928;2023-02-03T12:47:51;101397.56;;;8.83;83.74
30730;BME280;17476;48.458;7.928;2023-02-03T12:50:24;101404.56;;;8.93;82.49
30730;BME280;17476;48.458;7.928;2023-02-03T12:53:10;101403.28;;;8.88;82.70
30730;BME280;17476;48.458;7.928;2023-02-03T12:58:24;101390.13;;;8.89;83.36
30730;BME280;17476;48.458;7.928;2023-02-03T13:01:03;101384.53;;;8.94;83.42
30730;BME280;17476;48.458;7.928;2023-02-03T13:03:51;101400.44;;;8.91;83.75
30730;BME280;17476;48.458;7.928;2023-02-03T13:15:08;101385.97;;;8.98;82.75
30730;BME280;17476;48.458;7.928;2023-02-03T13:18:19;101381.22;;;9.03;82.08
30730;BME280;17476;48.458;7.928;2023-02-03T13:20:51;101387.63;;;8.99;82.04
30730;BME280;17476;48.458;7.928;2023-02-03T13:23:19;101394.41;;;9.01;81.27
30730;BME280;17476;48.458;7.928;2023-02-03T13:25:56;101386.66;;;9.00;81.45
30730;BME280;17476;48.458;7.928;2023-02-03T13:32:06;101388.94;;;9.05;81.60
30730;BME280;17476;48.458;7.928;2023-02-03T13:37:55;101370.44;;;8.96;82.93
30730;BME280;17476;48.458;7.928;2023-02-03T13:40:58;101372.31;;;9.06;81.13
30730;BME280;17476;48.458;7.928;2023-02-03T13:43:49;101381.34;;;9.01;82.73
30730;BME280;17476;48.458;7.928;2023-02-03T13:46:29;101388.59;;;9.09;81.41
30730;BME280;17476;48.458;7.928;2023-02-03T13:49:00;101380.63;;;8.99;82.06
30730;BME280;17476;48.458;7.928;2023-02-03T13:51:32;101369.59;;;9.07;82.19
30730;BME280;17476;48.458;7.928;2023-02-03T13:54:06;101363.66;;;9.05;81.98
30730;BME280;17476;48.458;7.928;2023-02-03T13:56:33;101346.47;;;9.02;82.76
30730;BME280;17476;48.458;7.928;2023-02-03T14:01:41;101347.06;;;8.95;82.24
30730;BME280;17476;48.458;7.928;2023-02-03T14:09:23;101348.72;;;8.96;82.21
30730;BME280;17476;48.458;7.928;2023-02-03T14:12:30;101358.34;;;8.95;81.77
30730;BME280;17476;48.458;7.928;2023-02-03T14:15:01;101354.91;;;8.95;81.98
30730;BME280;17476;48.458;7.928;2023-02-03T14:25:57;101356.06;;;8.91;82.39
30730;BME280;17476;48.458;7.928;2023-02-03T14:28:40;101365.34;;;8.95;82.04
30730;BME280;17476;48.458;7.928;2023-02-03T14:31:23;101363.44;;;8.97;81.25
30730;BME280;17476;48.458;7.928;2023-02-03T14:34:11;101347.16;;;8.93;80.55
30730;BME280;17476;48.458;7.928;2023-02-03T14:36:50;101346.34;;;8.93;81.06
30730;BME280;17476;48.458;7.928;2023-02-03T14:44:58;101379.06;;;8.86;80.90
30730;BME280;17476;48.458;7.928;2023-02-03T14:51:02;101380.97;;;8.84;81.02
30730;BME280;17476;48.458;7.928;2023-02-03T14:53:57;101387.25;;;8.81;81.63
30730;BME280;17476;48.458;7.928;2023-02-03T14:56:42;101381.47;;;8.89;81.06
30730;BME280;17476;48.458;7.928;2023-02-03T14:59:39;101371.25;;;8.86;80.76
30730;BME280;17476;48.458;7.928;2023-02-03T15:02:15;101377.28;;;8.86;81.07
30730;BME280;17476;48.458;7.928;2023-02-03T15:04:42;101381.81;;;8.95;79.50
30730;BME280;17476;48.458;7.928;2023-02-03T15:09:59;101384.41;;;8.84;81.40
30730;BME280;17476;48.458;7.928;2023-02-03T15:12:26;101382.50;;;8.86;81.04
30730;BME280;17476;48.458;7.928;2023-02-03T15:15:31;101393.91;;;8.85;80.64
30730;BME280;17476;48.458;7.928;2023-02-03T15:18:18;101394.59;;;8.87;81.62
30730;BME280;17476;48.458;7.928;2023-02-03T15:20:54;101379.53;;;8.80;81.00
30730;BME280;17476;48.458;7.928;2023-02-03T15:23:30;101380.97;;;8.84;81.87
30730;BME280;17476;48.458;7.928;2023-02-03T15:26:21;101390.47;;;8.85;81.43
30730;BME280;17476;48.458;7.928;2023-02-03T15:29:04;101400.88;;;8.85;82.62
30730;BME280;17476;48.458;7.928;2023-02-03T15:31:47;101407.41;;;8.79;82.32
30730;BME280;17476;48.458;7.928;2023-02-03T15:34:57;101402.31;;;8.78;81.47
30730;BME280;17476;48.458;7.928;2023-02-03T15:37:45;101402.31;;;8.78;82.26